Time;durP1;ratioP1;P1;durP2;ratioP2;P2;SDS_P1;SDS_P2;PMS_P1;PMS_P2;Temp;Humidity;BMP_temperature;BMP_pressure;BME280_temperature;BME280_humidity;BME280_pressure;Samples;Min_cycle;Max_cycle;Signal;HPM_P1;HPM_P2
2021/01/25 09:04:53;;;;;;;12.63;10.00;;;;;;;0.79;94.28;97468.50;5169737;27;20546;-81
2021/01/25 09:07:25;;;;;;;12.77;10.20;;;;;;;1.41;93.65;97480.34;5136604;27;40207;-83
2021/01/25 09:09:53;;;;;;;10.13;9.13;;;;;;;1.92;91.02;97483.94;5131204;27;40746;-80
2021/01/25 09:12:21;;;;;;;10.67;8.93;;;;;;;2.32;88.21;97494.06;5130974;27;41800;-80
2021/01/25 09:14:48;;;;;;;9.80;8.80;;;;;;;2.49;85.35;97478.34;5129554;27;41917;-81
2021/01/25 09:17:17;;;;;;;10.40;8.63;;;;;;;2.87;84.00;97491.16;5123204;27;39945;-86
2021/01/25 09:23:18;;;;;;;9.33;8.17;;;;;;;3.40;78.97;97508.34;5133102;27;43816;-87
2021/01/25 09:28:56;;;;;;;9.30;7.90;;;;;;;3.82;76.98;97518.19;5133642;27;40548;-82
2021/01/25 09:31:28;;;;;;;8.20;7.40;;;;;;;3.90;74.13;97527.28;5124201;27;43198;-85
2021/01/25 09:33:56;;;;;;;12.13;8.17;;;;;;;3.76;73.62;97508.91;5113541;27;43000;-78
2021/01/25 09:36:33;;;;;;;11.40;7.33;;;;;;;4.01;74.38;97544.16;5130209;27;41156;-82
2021/01/25 09:39:07;;;;;;;18.43;13.10;;;;;;;4.11;73.52;97546.16;5144922;27;39544;-80
2021/01/25 09:41:35;;;;;;;18.80;13.97;;;;;;;4.11;73.37;97521.75;5119064;27;41839;-83
2021/01/25 09:44:04;;;;;;;10.33;8.50;;;;;;;4.35;71.87;97525.56;5134002;27;41743;-84
2021/01/25 09:46:33;;;;;;;9.00;7.63;;;;;;;4.91;69.87;97568.53;5150259;27;41909;-84
2021/01/25 09:49:00;;;;;;;7.87;7.07;;;;;;;4.91;68.21;97513.47;5150145;27;38873;-85
2021/01/25 09:51:28;;;;;;;7.70;6.93;;;;;;;5.66;67.22;97570.00;5134430;27;41143;-90
2021/01/25 09:53:55;;;;;;;8.00;7.20;;;;;;;5.97;66.06;97572.38;5134054;27;41781;-88
2021/01/25 09:56:23;;;;;;;7.40;6.70;;;;;;;6.36;65.16;97573.34;5135141;27;41200;-85
2021/01/25 09:59:05;;;;;;;7.43;6.63;;;;;;;6.81;61.96;97607.09;5130942;27;39172;-88
2021/01/25 10:01:32;;;;;;;7.17;6.53;;;;;;;6.81;61.09;97572.91;5147824;27;42802;-84
2021/01/25 10:04:19;;;;;;;7.23;6.57;;;;;;;7.24;61.27;97606.81;5129725;27;41759;-85
2021/01/25 10:06:50;;;;;;;7.67;6.90;;;;;;;7.50;59.89;97621.66;5134959;27;41794;-87
2021/01/25 10:09:18;;;;;;;7.10;6.30;;;;;;;6.96;58.93;97541.22;5144379;27;39213;-88
2021/01/25 10:11:46;;;;;;;7.10;6.50;;;;;;;7.11;61.22;97593.66;5134110;27;41660;-82
2021/01/25 10:14:14;;;;;;;7.40;6.67;;;;;;;6.85;61.50;97592.81;5113785;27;42859;-89
2021/01/25 10:16:50;;;;;;;11.07;6.80;;;;;;;6.53;61.80;97580.97;5095061;28;41267;-87
2021/01/25 10:19:17;;;;;;;7.50;6.80;;;;;;;6.24;62.50;97593.41;5093451;28;40160;-90
2021/01/25 10:21:45;;;;;;;8.20;7.40;;;;;;;5.73;63.55;97531.88;5094846;27;40670;-88
2021/01/25 10:24:14;;;;;;;8.70;7.17;;;;;;;6.05;64.24;97596.38;5077979;28;42022;-88
2021/01/25 10:26:41;;;;;;;7.73;6.93;;;;;;;5.97;65.16;97588.13;5075745;28;40814;-81
2021/01/25 10:29:08;;;;;;;10.63;9.13;;;;;;;6.04;64.07;97605.22;5079401;28;38766;-84
2021/01/25 10:31:35;;;;;;;19.70;13.13;;;;;;;5.92;62.18;97603.38;5096569;27;41619;-86
2021/01/25 10:34:02;;;;;;;11.70;9.13;;;;;;;6.02;63.26;97604.47;5096771;28;42736;-89
2021/01/25 10:36:30;;;;;;;8.53;7.10;;;;;;;6.03;63.59;97593.00;5081779;28;41027;-83
2021/01/25 10:38:57;;;;;;;9.07;6.90;;;;;;;5.93;64.04;97552.50;5088672;28;40594;-83
2021/01/25 10:41:25;;;;;;;8.00;7.07;;;;;;;6.17;63.15;97588.66;5099854;28;40280;-82
2021/01/25 10:43:52;;;;;;;7.53;6.83;;;;;;;6.34;63.78;97596.25;5118852;27;42825;-86
2021/01/25 10:46:20;;;;;;;7.40;6.60;;;;;;;6.58;62.80;97602.53;5101803;28;41188;-81
2021/01/25 10:48:47;;;;;;;8.07;6.93;;;;;;;6.73;62.74;97574.38;5094735;28;39277;-83
2021/01/25 10:51:14;;;;;;;7.43;6.73;;;;;;;7.36;61.62;97602.50;5079390;28;42199;-85
2021/01/25 10:53:41;;;;;;;7.30;6.60;;;;;;;7.92;60.95;97614.28;5098545;28;42925;-85
2021/01/25 10:56:08;;;;;;;7.37;6.77;;;;;;;8.15;56.12;97660.13;5093325;28;41624;-86
2021/01/25 10:58:37;;;;;;;6.67;5.97;;;;;;;8.04;57.28;97633.66;5094861;28;38553;-90
2021/01/25 11:01:04;;;;;;;6.60;5.97;;;;;;;7.85;57.64;97606.00;5094904;28;40666;-82
2021/01/25 11:03:33;;;;;;;6.63;5.90;;;;;;;7.72;58.74;97609.59;5096627;28;41457;-86
2021/01/25 11:06:00;;;;;;;7.13;6.43;;;;;;;7.70;58.94;97628.16;5082053;28;41452;-87
2021/01/25 11:08:28;;;;;;;7.20;6.50;;;;;;;7.29;57.66;97602.09;5075485;28;40016;-86
2021/01/25 11:10:55;;;;;;;8.83;7.30;;;;;;;7.38;57.68;97659.38;5074678;28;40523;-83
2021/01/25 11:13:22;;;;;;;7.47;6.77;;;;;;;7.39;57.62;97670.75;5075130;28;41831;-84
2021/01/25 11:15:50;;;;;;;10.17;7.03;;;;;;;7.19;58.05;97656.31;5111171;28;42886;-82
2021/01/25 11:18:17;;;;;;;7.10;6.40;;;;;;;7.07;58.69;97650.09;5112796;28;40126;-87
2021/01/25 11:20:44;;;;;;;6.73;6.13;;;;;;;7.11;58.34;97656.84;5112378;28;41618;-84
2021/01/25 11:23:11;;;;;;;8.03;7.20;;;;;;;6.99;59.05;97633.13;5093104;28;42707;-84
2021/01/25 11:25:39;;;;;;;8.97;7.27;;;;;;;7.08;60.00;97641.25;5090235;28;42054;-85
2021/01/25 11:28:06;;;;;;;7.10;6.40;;;;;;;6.85;60.52;97623.53;5107363;28;40561;-83
2021/01/25 11:30:33;;;;;;;8.20;7.40;;;;;;;6.89;60.63;97655.75;5099672;28;41661;-85
2021/01/25 11:33:01;;;;;;;8.87;7.97;;;;;;;6.74;61.00;97650.56;5074618;28;42501;-82
2021/01/25 11:35:28;;;;;;;9.67;7.30;;;;;;;6.63;61.64;97645.16;5093370;28;41835;-86
2021/01/25 11:37:56;;;;;;;7.50;6.60;;;;;;;6.61;61.70;97639.16;5078263;28;38963;-84
2021/01/25 11:40:24;;;;;;;8.37;7.33;;;;;;;6.76;61.55;97677.63;5078406;28;40389;-88
2021/01/25 11:42:52;;;;;;;7.83;6.97;;;;;;;6.28;62.17;97622.97;5095829;28;41671;-84
2021/01/25 11:45:19;;;;;;;8.30;6.90;;;;;;;6.49;62.08;97669.75;5086671;28;41334;-86
2021/01/25 11:47:46;;;;;;;9.93;6.73;;;;;;;6.54;62.88;97677.34;5092186;28;38669;-85
2021/01/25 11:50:15;;;;;;;8.40;7.60;;;;;;;6.45;61.32;97681.38;5095195;28;40849;-87
2021/01/25 11:52:42;;;;;;;8.97;7.83;;;;;;;6.38;61.68;97671.38;5096217;28;41792;-82
2021/01/25 11:55:10;;;;;;;8.13;7.30;;;;;;;6.42;62.74;97673.72;5089783;28;42670;-82
2021/01/25 11:57:37;;;;;;;7.57;6.70;;;;;;;6.21;62.85;97643.53;5075299;28;40695;-89
2021/01/25 12:00:06;;;;;;;7.87;7.17;;;;;;;6.23;62.85;97656.59;5108821;28;41040;-85
2021/01/25 12:02:33;;;;;;;8.40;7.43;;;;;;;6.22;61.94;97683.81;5095872;28;42715;-85
2021/01/25 12:05:00;;;;;;;8.73;7.83;;;;;;;6.09;62.86;97676.69;5089082;28;42159;-90
2021/01/25 12:07:29;;;;;;;8.63;7.83;;;;;;;5.91;62.81;97667.38;5096335;28;39447;-90
2021/01/25 12:09:56;;;;;;;8.10;7.33;;;;;;;5.82;62.67;97670.50;5097088;28;41022;-85
2021/01/25 12:12:23;;;;;;;8.97;8.10;;;;;;;5.89;63.07;97692.03;5098810;28;42807;-85
2021/01/25 12:14:51;;;;;;;8.97;7.33;;;;;;;5.74;63.79;97664.91;5089781;28;42125;-87
2021/01/25 12:17:18;;;;;;;9.20;8.20;;;;;;;5.52;63.78;97643.53;5110399;28;38818;-89
2021/01/25 12:19:45;;;;;;;9.43;7.10;;;;;;;5.59;63.71;97656.19;5111398;28;41545;-88
2021/01/25 12:22:12;;;;;;;8.33;7.63;;;;;;;5.58;63.38;97658.91;5094688;28;41854;-84
2021/01/25 12:24:40;;;;;;;9.30;7.87;;;;;;;5.53;63.55;97642.59;5093838;28;41725;-84
2021/01/25 12:27:08;;;;;;;12.27;10.97;;;;;;;5.75;63.34;97664.81;5090063;28;39912;-85
2021/01/25 12:29:35;;;;;;;9.97;8.67;;;;;;;6.10;64.02;97683.66;5073181;28;41345;-86
2021/01/25 12:32:02;;;;;;;11.03;9.40;;;;;;;6.42;62.32;97704.44;5074692;28;41678;-84
2021/01/25 12:34:32;;;;;;;9.03;8.13;;;;;;;6.54;62.24;97664.19;5097074;28;41114;-86
2021/01/25 12:37:00;;;;;;;9.67;7.47;;;;;;;6.93;61.68;97704.59;5094541;28;38782;-90
2021/01/25 12:39:27;;;;;;;8.67;7.77;;;;;;;6.93;61.52;97699.31;5109476;28;41841;-87
2021/01/25 12:41:55;;;;;;;8.33;7.53;;;;;;;6.78;61.57;97686.25;5093992;28;41717;-81
2021/01/25 12:44:23;;;;;;;9.00;8.10;;;;;;;6.85;61.07;97707.72;5093035;28;42075;-84
2021/01/25 12:46:50;;;;;;;8.43;7.57;;;;;;;6.77;60.95;97678.47;5109034;28;39774;-84
2021/01/25 12:49:18;;;;;;;7.93;7.13;;;;;;;7.13;60.45;97715.50;5089904;28;41575;-87
2021/01/25 12:51:46;;;;;;;8.20;7.40;;;;;;;7.17;59.49;97726.69;5073443;28;41737;-82
2021/01/25 12:54:14;;;;;;;7.50;6.80;;;;;;;7.04;60.29;97707.38;5078689;28;42452;-86
2021/01/25 12:56:41;;;;;;;8.63;7.77;;;;;;;7.04;60.65;97702.13;5093983;28;38962;-84
2021/01/25 12:59:09;;;;;;;9.03;8.07;;;;;;;6.85;60.37;97677.00;5093407;28;40798;-83
2021/01/25 13:01:36;;;;;;;8.07;7.17;;;;;;;6.92;60.02;97710.81;5110291;28;43484;-89
2021/01/25 13:04:03;;;;;;;8.30;7.50;;;;;;;6.72;60.73;97697.16;5093626;28;41080;-86
2021/01/25 13:06:31;;;;;;;8.97;7.67;;;;;;;6.67;60.66;97717.69;5093996;28;38572;-82
2021/01/25 13:08:58;;;;;;;8.90;7.47;;;;;;;6.53;61.48;97728.25;5091802;28;40783;-89
2021/01/25 13:11:25;;;;;;;8.53;7.73;;;;;;;6.32;60.80;97740.13;5094135;28;41442;-88
2021/01/25 13:13:52;;;;;;;8.63;7.83;;;;;;;6.12;61.23;97738.75;5093073;28;42003;-86
2021/01/25 13:16:20;;;;;;;7.80;7.10;;;;;;;5.83;61.92;97722.13;5111761;27;39664;-82
2021/01/25 13:18:47;;;;;;;7.83;7.10;;;;;;;5.70;62.47;97721.19;5107782;28;40587;-84
2021/01/25 13:21:19;;;;;;;8.33;7.07;;;;;;;5.56;62.79;97715.94;5092454;28;43060;-82
2021/01/25 13:23:46;;;;;;;9.33;8.40;;;;;;;5.50;63.36;97716.28;5109361;28;41321;-83
2021/01/25 13:26:14;;;;;;;8.93;8.03;;;;;;;5.55;63.37;97732.63;5094061;28;40386;-86
2021/01/25 13:28:41;;;;;;;9.57;7.90;;;;;;;5.50;63.94;97729.44;5110321;28;41550;-85
2021/01/25 13:31:08;;;;;;;8.17;7.40;;;;;;;5.18;64.06;97682.34;5094388;28;42822;-86
2021/01/25 13:33:36;;;;;;;9.00;7.73;;;;;;;5.44;64.38;97729.81;5109453;28;42301;-83
2021/01/25 13:36:04;;;;;;;9.47;8.27;;;;;;;5.46;64.25;97734.00;5093937;28;39163;-84
2021/01/25 13:38:31;;;;;;;10.00;9.00;;;;;;;5.41;64.26;97729.06;5090982;28;41523;-85
2021/01/25 13:40:59;;;;;;;9.50;8.60;;;;;;;5.20;64.77;97714.56;5089264;28;42521;-81
2021/01/25 13:43:44;;;;;;;9.37;8.47;;;;;;;5.28;65.17;97746.47;5089290;28;43228;-88
2021/01/25 13:46:11;;;;;;;9.10;8.27;;;;;;;5.33;65.24;97762.78;5072556;28;39306;-85
2021/01/25 13:48:39;;;;;;;10.47;9.37;;;;;;;5.30;64.83;97770.84;5089864;28;41646;-82
2021/01/25 13:51:08;;;;;;;9.50;8.50;;;;;;;5.12;65.22;97740.41;5093462;28;43479;-88
2021/01/25 13:53:36;;;;;;;8.80;7.90;;;;;;;5.03;65.45;97746.19;5076629;28;41404;-90
2021/01/25 13:56:04;;;;;;;9.10;8.20;;;;;;;4.73;65.58;97696.34;5077280;28;38605;-88
2021/01/25 13:58:31;;;;;;;10.17;9.13;;;;;;;4.78;65.83;97727.56;5076693;28;41650;-85
2021/01/25 14:00:59;;;;;;;9.77;8.83;;;;;;;4.81;66.02;97751.00;5098970;28;41846;-88
2021/01/25 14:03:26;;;;;;;10.30;9.03;;;;;;;4.46;66.48;97698.75;5094593;28;41874;-91
2021/01/25 14:05:54;;;;;;;9.47;8.57;;;;;;;4.68;67.09;97762.19;5076139;28;39999;-86
2021/01/25 14:08:21;;;;;;;9.47;8.50;;;;;;;4.79;67.71;97779.09;5092998;28;40643;-84
2021/01/25 14:10:50;;;;;;;12.90;10.33;;;;;;;4.78;67.76;97793.13;5121872;27;43528;-86
2021/01/25 14:13:18;;;;;;;10.87;9.73;;;;;;;4.48;68.28;97765.06;5078650;28;41637;-84
2021/01/25 14:15:45;;;;;;;10.93;9.83;;;;;;;4.50;68.42;97789.41;5077474;28;39976;-88
2021/01/25 14:18:12;;;;;;;11.13;10.00;;;;;;;4.10;68.71;97740.09;5076296;28;40440;-87
2021/01/25 14:20:41;;;;;;;9.80;8.80;;;;;;;4.31;68.83;97789.59;5093545;28;42402;-88
2021/01/25 14:23:09;;;;;;;12.23;11.03;;;;;;;4.26;68.85;97796.00;5097586;28;42049;-85
2021/01/25 14:25:41;;;;;;;10.30;9.30;;;;;;;4.26;69.09;97806.47;5078791;28;39973;-80
2021/01/25 14:28:10;;;;;;;12.67;11.27;;;;;;;4.22;69.25;97811.03;5076648;28;40679;-82
2021/01/25 14:30:43;;;;;;;11.70;10.43;;;;;;;3.91;69.42;97774.31;5098749;28;43546;-89
2021/01/25 14:33:11;;;;;;;12.17;10.90;;;;;;;4.04;69.77;97800.69;5095465;28;41174;-89
2021/01/25 14:35:38;;;;;;;11.20;10.10;;;;;;;3.68;70.20;97754.56;5076795;28;39599;-85
2021/01/25 14:38:06;;;;;;;12.20;10.87;;;;;;;3.77;70.34;97782.88;5096520;28;42333;-82
2021/01/25 14:40:34;;;;;;;12.70;11.40;;;;;;;3.57;70.73;97764.75;5094986;28;42750;-85
2021/01/25 14:43:02;;;;;;;13.13;11.10;;;;;;;3.78;70.93;97818.63;5096563;28;42137;-83
2021/01/25 14:45:31;;;;;;;11.43;10.23;;;;;;;3.85;71.09;97827.00;5096126;28;40029;-85
2021/01/25 14:48:00;;;;;;;10.90;9.80;;;;;;;3.69;70.81;97824.34;5096307;28;40877;-83
2021/01/25 14:50:29;;;;;;;13.10;11.37;;;;;;;3.57;71.47;97811.88;5111629;28;42619;-88
2021/01/25 14:52:57;;;;;;;11.87;10.67;;;;;;;3.20;71.74;97771.88;5097085;28;41368;-86
2021/01/25 14:55:29;;;;;;;11.23;9.77;;;;;;;3.63;72.13;97848.19;5112003;28;38950;-83
2021/01/25 14:57:57;;;;;;;12.53;10.60;;;;;;;3.41;72.01;97824.88;5075299;28;41037;-84
2021/01/25 15:00:25;;;;;;;11.70;10.33;;;;;;;3.43;72.68;97830.03;5090669;27;41796;-82
2021/01/25 15:02:54;;;;;;;14.53;11.37;;;;;;;3.43;72.79;97857.06;5095348;28;41062;-83
2021/01/25 15:05:24;;;;;;;10.03;9.03;;;;;;;3.49;72.56;97866.38;5109853;28;40834;-83
2021/01/25 15:07:52;;;;;;;15.37;13.10;;;;;;;3.25;73.13;97831.78;5093035;28;41390;-80
2021/01/25 15:10:22;;;;;;;16.17;11.93;;;;;;;3.42;73.26;97875.47;5073987;28;41701;-83
2021/01/25 15:12:49;;;;;;;15.43;12.13;;;;;;;3.14;73.47;97829.72;5108135;28;42974;-82
2021/01/25 15:15:20;;;;;;;30.97;23.57;;;;;;;3.35;73.17;97880.13;5085814;28;40462;-83
2021/01/25 15:17:48;;;;;;;15.57;13.13;;;;;;;3.14;73.17;97863.72;5108494;28;40416;-84
2021/01/25 15:20:18;;;;;;;14.20;11.57;;;;;;;3.30;74.06;97891.75;5105184;28;42705;-83
2021/01/25 15:22:45;;;;;;;12.90;10.00;;;;;;;3.15;73.98;97883.72;5095207;28;43327;-87
2021/01/25 15:25:14;;;;;;;12.77;10.10;;;;;;;3.04;74.26;97885.16;5094405;28;38709;-86
2021/01/25 15:27:43;;;;;;;11.50;10.10;;;;;;;2.66;74.60;97826.84;5111931;28;41714;-89
2021/01/25 15:30:11;;;;;;;12.20;10.27;;;;;;;2.96;74.89;97893.38;5094274;28;42549;-83
2021/01/25 15:32:41;;;;;;;13.17;10.43;;;;;;;2.92;74.63;97897.06;5094770;28;41187;-83
2021/01/25 15:35:10;;;;;;;13.43;10.97;;;;;;;2.97;75.13;97920.38;5094701;28;39268;-83
2021/01/25 15:37:37;;;;;;;13.10;11.77;;;;;;;2.97;74.72;97926.44;5113790;28;42054;-88
2021/01/25 15:40:06;;;;;;;12.70;10.40;;;;;;;2.91;74.96;97931.13;5090803;28;42142;-84
2021/01/25 15:42:36;;;;;;;12.07;9.90;;;;;;;2.74;75.03;97903.13;5091865;28;42196;-84
2021/01/25 15:45:05;;;;;;;14.53;10.63;;;;;;;2.81;75.06;97915.00;5074370;28;39997;-86
2021/01/25 15:47:37;;;;;;;19.43;16.53;;;;;;;2.85;75.18;97921.78;5091907;28;42368;-84
2021/01/25 15:50:09;;;;;;;22.70;17.37;;;;;;;2.84;74.85;97920.94;5086840;28;41926;-81
2021/01/25 15:52:37;;;;;;;17.43;14.57;;;;;;;2.67;75.01;97894.75;5091813;28;41307;-83
2021/01/25 15:55:06;;;;;;;14.57;12.30;;;;;;;2.67;75.09;97904.34;5086370;28;40151;-84
2021/01/25 15:57:33;;;;;;;14.97;13.33;;;;;;;2.65;75.18;97908.78;5095248;28;41152;-86
2021/01/25 16:00:00;;;;;;;14.47;11.83;;;;;;;2.93;75.08;97958.91;5094437;28;42215;-84
2021/01/25 16:02:27;;;;;;;17.07;12.43;;;;;;;2.80;75.00;97939.47;5111219;28;42184;-85
2021/01/25 16:04:55;;;;;;;12.30;11.03;;;;;;;2.84;75.17;97956.72;5090436;28;39112;-82
2021/01/25 16:07:23;;;;;;;13.23;11.83;;;;;;;2.78;74.95;97962.19;5074232;28;40589;-84
2021/01/25 16:09:50;;;;;;;13.17;11.47;;;;;;;2.76;74.78;97958.81;5101841;27;42083;-82
2021/01/25 16:12:17;;;;;;;13.50;11.03;;;;;;;2.77;75.15;97965.72;5089427;28;41304;-80
2021/01/25 16:14:45;;;;;;;12.77;11.47;;;;;;;2.85;74.88;97979.28;5090543;28;40313;-84
2021/01/25 16:17:13;;;;;;;12.67;11.00;;;;;;;2.77;74.89;97981.41;5074134;28;40859;-83
2021/01/25 16:19:40;;;;;;;13.73;12.27;;;;;;;2.83;74.96;97996.84;5073703;28;42705;-81
2021/01/25 16:22:08;;;;;;;14.20;11.47;;;;;;;2.70;75.24;97982.63;5082134;28;42096;-84
2021/01/25 16:24:36;;;;;;;11.90;10.60;;;;;;;2.78;74.90;98004.03;5090411;28;39924;-85
2021/01/25 16:27:03;;;;;;;14.67;12.37;;;;;;;2.69;75.17;97988.78;5091345;28;41896;-84
2021/01/25 16:29:31;;;;;;;14.60;11.43;;;;;;;2.75;75.16;98004.16;5093523;28;41847;-83
2021/01/25 16:31:58;;;;;;;19.00;14.83;;;;;;;2.73;75.23;98001.63;5111046;28;41152;-84
2021/01/25 16:34:25;;;;;;;19.17;15.10;;;;;;;2.66;75.54;98001.97;5110864;28;39169;-83
2021/01/25 16:36:53;;;;;;;14.93;12.07;;;;;;;2.65;75.27;98019.41;5090367;28;42074;-86
2021/01/25 16:39:20;;;;;;;13.43;12.03;;;;;;;2.47;75.36;97989.69;5073023;28;42808;-80
2021/01/25 16:41:53;;;;;;;12.57;10.53;;;;;;;2.61;75.43;98017.00;5090864;28;41165;-86
2021/01/25 16:44:20;;;;;;;15.87;13.00;;;;;;;2.44;75.35;97995.09;5097241;28;39047;-83
2021/01/25 16:46:48;;;;;;;16.97;13.13;;;;;;;2.49;75.32;98002.69;5090727;28;40801;-82
2021/01/25 16:49:15;;;;;;;19.57;15.77;;;;;;;2.63;75.23;98023.00;5073853;28;41614;-81
2021/01/25 16:51:42;;;;;;;17.57;13.93;;;;;;;2.58;75.12;98023.22;5075200;28;41088;-86
2021/01/25 16:54:09;;;;;;;14.30;12.53;;;;;;;2.60;75.43;98031.81;5093709;28;40197;-86
2021/01/25 16:56:37;;;;;;;17.43;14.63;;;;;;;2.59;75.36;98040.59;5094490;28;41002;-84
2021/01/25 16:59:05;;;;;;;17.70;14.60;;;;;;;2.58;75.49;98043.28;5093502;28;41900;-84
2021/01/25 17:01:32;;;;;;;16.80;14.10;;;;;;;2.52;75.40;98034.78;5091943;28;41373;-82
2021/01/25 17:04:00;;;;;;;16.17;12.93;;;;;;;2.58;75.31;98056.34;5091187;28;38705;-81
2021/01/25 17:06:28;;;;;;;19.13;15.23;;;;;;;2.57;75.55;98052.03;5088361;28;41855;-81
2021/01/25 17:08:55;;;;;;;16.33;13.80;;;;;;;2.55;75.59;98056.47;5087782;28;42722;-82
2021/01/25 17:11:22;;;;;;;15.23;12.53;;;;;;;2.50;75.34;98062.75;5079405;28;41223;-81
2021/01/25 17:13:50;;;;;;;13.73;11.77;;;;;;;2.37;75.43;98050.25;5085256;28;38794;-79
2021/01/25 17:16:18;;;;;;;16.10;11.87;;;;;;;2.41;75.61;98049.22;5107322;28;42930;-83
2021/01/25 17:18:45;;;;;;;17.47;12.97;;;;;;;2.52;75.58;98076.59;5121325;28;42957;-82
2021/01/25 17:21:12;;;;;;;15.40;13.40;;;;;;;2.56;75.35;98076.47;5104957;28;40839;-82
2021/01/25 17:23:39;;;;;;;13.13;10.60;;;;;;;2.57;75.52;98084.25;5110114;28;38988;-82
2021/01/25 17:26:06;;;;;;;15.33;12.03;;;;;;;2.58;75.40;98085.09;5099940;28;40605;-81
2021/01/25 17:28:33;;;;;;;15.80;12.70;;;;;;;2.42;75.32;98059.63;5105810;28;42766;-79
2021/01/25 17:31:01;;;;;;;14.93;12.57;;;;;;;2.45;75.20;98061.25;5096600;28;41511;-80
2021/01/25 17:33:31;;;;;;;13.20;11.13;;;;;;;2.58;75.36;98091.19;5112369;28;40665;-81
2021/01/25 17:35:59;;;;;;;15.20;12.40;;;;;;;2.58;75.23;98085.94;5114881;28;41422;-83
2021/01/25 17:38:26;;;;;;;16.17;12.70;;;;;;;2.56;75.51;98093.00;5096751;28;41739;-80
2021/01/25 17:40:56;;;;;;;13.13;11.53;;;;;;;2.27;75.76;98049.81;5114462;27;41752;-79
2021/01/25 17:43:24;;;;;;;14.67;11.93;;;;;;;2.53;75.61;98104.44;5112342;28;40173;-81
2021/01/25 17:45:51;;;;;;;14.27;12.23;;;;;;;2.53;75.84;98104.44;5094822;28;41764;-83
2021/01/25 17:48:18;;;;;;;15.17;12.40;;;;;;;2.55;75.52;98100.91;5094574;28;42022;-80
2021/01/25 17:50:46;;;;;;;13.23;11.20;;;;;;;2.44;75.82;98089.16;5110489;27;41937;-79
2021/01/25 17:53:15;;;;;;;15.37;12.97;;;;;;;2.22;75.78;98058.75;5094983;28;39098;-82
2021/01/25 17:55:42;;;;;;;16.07;12.37;;;;;;;2.51;75.78;98106.25;5090613;28;41067;-79
2021/01/25 17:58:09;;;;;;;13.93;10.90;;;;;;;2.55;75.76;98116.59;5107720;28;42710;-81
2021/01/25 18:00:36;;;;;;;13.80;11.80;;;;;;;2.55;75.51;98112.22;5075903;28;42364;-80
2021/01/25 18:03:04;;;;;;;14.43;11.60;;;;;;;2.43;75.55;98103.13;5093494;28;38931;-82
2021/01/25 18:05:33;;;;;;;15.77;12.80;;;;;;;2.56;75.66;98133.97;5092905;28;40863;-82
2021/01/25 18:08:01;;;;;;;15.93;13.73;;;;;;;2.56;75.91;98128.75;5092723;28;42148;-79
2021/01/25 18:10:28;;;;;;;17.10;15.03;;;;;;;2.48;75.77;98121.19;5093382;27;42212;-84
2021/01/25 18:12:56;;;;;;;15.87;13.50;;;;;;;2.50;75.81;98122.00;5092488;28;39658;-80
2021/01/25 18:15:26;;;;;;;15.10;12.00;;;;;;;2.45;75.83;98116.13;5088958;28;40498;-83
2021/01/25 18:17:54;;;;;;;15.80;13.43;;;;;;;2.55;75.83;98134.88;5096551;28;42836;-83
2021/01/25 18:20:22;;;;;;;14.80;12.60;;;;;;;2.58;76.04;98153.06;5096361;28;41254;-80
2021/01/25 18:22:49;;;;;;;14.30;11.57;;;;;;;2.36;76.00;98112.13;5094694;28;39654;-83
2021/01/25 18:25:18;;;;;;;16.07;12.03;;;;;;;2.21;75.95;98086.66;5075650;28;41291;-84
2021/01/25 18:27:45;;;;;;;13.50;11.20;;;;;;;2.25;76.05;98103.88;5092608;28;41352;-84
2021/01/25 18:30:15;;;;;;;16.20;12.90;;;;;;;2.58;75.95;98155.66;5075702;28;41364;-78
2021/01/25 18:32:43;;;;;;;15.93;13.20;;;;;;;2.59;75.85;98159.97;5092305;28;38862;-80
2021/01/25 18:35:12;;;;;;;20.27;15.33;;;;;;;2.59;75.96;98163.44;5100707;28;40260;-85
2021/01/25 18:37:39;;;;;;;18.03;14.63;;;;;;;2.58;75.90;98164.34;5109491;28;41853;-81
2021/01/25 18:40:08;;;;;;;21.60;15.50;;;;;;;2.59;76.04;98165.22;5079617;28;41218;-79
2021/01/25 18:42:36;;;;;;;18.90;15.50;;;;;;;2.49;76.65;98151.66;5095419;28;39101;-83
2021/01/25 18:45:05;;;;;;;16.90;14.10;;;;;;;2.31;76.60;98139.34;5112661;28;42153;-82
2021/01/25 18:47:33;;;;;;;15.03;12.60;;;;;;;2.32;76.33;98147.13;5095265;28;41936;-82
2021/01/25 18:50:00;;;;;;;14.77;12.00;;;;;;;2.46;76.61;98165.72;5095127;28;41179;-83
2021/01/25 18:52:29;;;;;;;15.83;12.67;;;;;;;2.19;76.68;98118.97;5109815;28;40957;-87
2021/01/25 18:54:56;;;;;;;15.20;13.07;;;;;;;2.48;76.83;98179.53;5095114;28;40976;-83
2021/01/25 18:57:24;;;;;;;16.97;13.47;;;;;;;2.33;76.93;98153.22;5112165;27;42667;-85
2021/01/25 18:59:52;;;;;;;18.37;14.17;;;;;;;2.09;76.77;98118.50;5095238;28;41197;-85
2021/01/25 19:02:22;;;;;;;16.03;13.30;;;;;;;2.18;76.75;98136.38;5096271;28;39051;-85
2021/01/25 19:04:51;;;;;;;18.17;14.40;;;;;;;2.12;76.88;98126.19;5095670;28;40828;-83
2021/01/25 19:07:19;;;;;;;16.73;14.57;;;;;;;2.49;77.05;98196.91;5112579;28;41796;-84
2021/01/25 19:09:47;;;;;;;16.47;13.40;;;;;;;2.57;77.23;98208.84;5094846;28;41536;-83
2021/01/25 19:12:14;;;;;;;17.37;13.07;;;;;;;2.38;76.84;98187.81;5095796;28;38999;-86
2021/01/25 19:14:41;;;;;;;18.23;14.17;;;;;;;2.51;76.92;98210.78;5112091;28;41624;-85
2021/01/25 19:17:13;;;;;;;16.33;13.30;;;;;;;2.47;76.95;98214.44;5095304;28;41770;-85
2021/01/25 19:19:40;;;;;;;17.10;13.80;;;;;;;2.16;77.04;98161.72;5095184;28;42384;-89
2021/01/25 19:22:20;;;;;;;16.20;12.77;;;;;;;2.40;76.87;98212.97;5111939;28;39245;-86
